sensor_id;sensor_type;location;lat;lon;timestamp;pressure;altitude;pressure_sealevel;temperature;humidity
7309;BME280;3695;53.330;9.876;2023-04-01T00:01:51;102138.72;;;9.85;100.00
7309;BME280;3695;53.330;9.876;2023-04-01T00:04:17;102190.00;;;9.87;100.00
7309;BME280;3695;53.330;9.876;2023-04-01T00:06:43;102214.84;;;9.90;100.00
7309;BME280;3695;53.330;9.876;2023-04-01T00:09:10;102270.09;;;9.81;100.00
7309;BME280;3695;53.330;9.876;2023-04-01T00:11:36;102409.88;;;9.82;100.00
7309;BME280;3695;53.330;9.876;2023-04-01T00:14:03;102495.88;;;9.80;100.00
7309;BME280;3695;53.330;9.876;2023-04-01T00:16:31;102542.91;;;9.79;100.00
7309;BME280;3695;53.330;9.876;2023-04-01T00:18:58;102644.31;;;9.85;100.00
7309;BME280;3695;53.330;9.876;2023-04-01T00:21:25;102668.16;;;9.81;100.00
7309;BME280;3695;53.330;9.876;2023-04-01T00:23:51;102705.22;;;9.81;100.00
7309;BME280;3695;53.330;9.876;2023-04-01T00:26:18;102752.13;;;9.81;100.00
7309;BME280;3695;53.330;9.876;2023-04-01T00:28:46;102800.50;;;9.76;100.00
7309;BME280;3695;53.330;9.876;2023-04-01T00:31:13;102893.44;;;9.76;100.00
7309;BME280;3695;53.330;9.876;2023-04-01T00:33:41;102971.66;;;9.79;100.00
7309;BME280;3695;53.330;9.876;2023-04-01T00:36:09;102977.91;;;9.80;100.00
7309;BME280;3695;53.330;9.876;2023-04-01T00:38:36;102968.09;;;9.79;100.00
7309;BME280;3695;53.330;9.876;2023-04-01T00:41:04;103008.72;;;9.79;100.00
7309;BME280;3695;53.330;9.876;2023-04-01T00:43:31;103047.28;;;9.73;100.00
7309;BME280;3695;53.330;9.876;2023-04-01T00:45:58;103095.38;;;9.79;100.00
7309;BME280;3695;53.330;9.876;2023-04-01T00:48:26;103122.78;;;9.76;100.00
7309;BME280;3695;53.330;9.876;2023-04-01T00:51:00;103153.97;;;9.80;100.00
7309;BME280;3695;53.330;9.876;2023-04-01T00:53:28;103170.53;;;9.77;100.00
7309;BME280;3695;53.330;9.876;2023-04-01T00:56:00;103200.94;;;9.71;100.00
7309;BME280;3695;53.330;9.876;2023-04-01T00:58:29;103226.31;;;9.70;100.00
7309;BME280;3695;53.330;9.876;2023-04-01T01:00:58;103263.94;;;9.73;100.00
7309;BME280;3695;53.330;9.876;2023-04-01T01:03:26;103291.31;;;9.70;100.00
7309;BME280;3695;53.330;9.876;2023-04-01T01:06:08;103298.44;;;9.71;100.00
7309;BME280;3695;53.330;9.876;2023-04-01T01:08:50;103322.41;;;9.66;100.00
7309;BME280;3695;53.330;9.876;2023-04-01T01:11:25;103341.22;;;9.67;100.00
7309;BME280;3695;53.330;9.876;2023-04-01T01:14:00;103374.72;;;9.66;100.00
7309;BME280;3695;53.330;9.876;2023-04-01T01:16:30;103398.53;;;9.63;100.00
7309;BME280;3695;53.330;9.876;2023-04-01T01:19:06;103431.72;;;9.65;100.00
7309;BME280;3695;53.330;9.876;2023-04-01T01:22:09;103428.47;;;9.61;100.00
7309;BME280;3695;53.330;9.876;2023-04-01T01:25:06;103446.56;;;9.61;100.00
7309;BME280;3695;53.330;9.876;2023-04-01T01:27:34;103435.00;;;9.68;100.00
7309;BME280;3695;53.330;9.876;2023-04-01T01:30:31;103417.38;;;9.55;100.00
7309;BME280;3695;53.330;9.876;2023-04-01T01:33:30;103446.28;;;9.64;100.00
7309;BME280;3695;53.330;9.876;2023-04-01T01:36:04;103455.69;;;9.60;100.00
7309;BME280;3695;53.330;9.876;2023-04-01T01:38:34;103479.81;;;9.53;100.00
7309;BME280;3695;53.330;9.876;2023-04-01T01:41:03;103499.72;;;9.62;100.00
7309;BME280;3695;53.330;9.876;2023-04-01T01:43:33;103532.94;;;9.64;100.00
7309;BME280;3695;53.330;9.876;2023-04-01T01:46:05;103547.06;;;9.58;100.00
7309;BME280;3695;53.330;9.876;2023-04-01T01:48:34;103580.41;;;9.58;100.00
7309;BME280;3695;53.330;9.876;2023-04-01T01:51:03;103593.66;;;9.52;100.00
7309;BME280;3695;53.330;9.876;2023-04-01T01:53:31;103610.06;;;9.50;100.00
7309;BME280;3695;53.330;9.876;2023-04-01T01:55:57;103640.13;;;9.57;100.00
7309;BME280;3695;53.330;9.876;2023-04-01T01:58:27;103664.19;;;9.50;100.00
7309;BME280;3695;53.330;9.876;2023-04-01T02:00:57;103694.13;;;9.58;100.00
7309;BME280;3695;53.330;9.876;2023-04-01T02:03:27;103709.53;;;9.58;100.00
7309;BME280;3695;53.330;9.876;2023-04-01T02:05:57;103685.16;;;9.58;100.00
7309;BME280;3695;53.330;9.876;2023-04-01T02:08:30;103674.59;;;9.55;100.00
7309;BME280;3695;53.330;9.876;2023-04-01T02:11:04;103636.56;;;9.56;100.00
7309;BME280;3695;53.330;9.876;2023-04-01T02:13:35;103640.25;;;9.55;100.00
7309;BME280;3695;53.330;9.876;2023-04-01T02:16:11;103648.53;;;9.54;100.00
7309;BME280;3695;53.330;9.876;2023-04-01T02:18:38;103646.53;;;9.56;100.00
7309;BME280;3695;53.330;9.876;2023-04-01T02:21:06;103639.13;;;9.58;100.00
7309;BME280;3695;53.330;9.876;2023-04-01T02:23:36;103616.47;;;9.59;100.00
7309;BME280;3695;53.330;9.876;2023-04-01T02:26:05;103622.31;;;9.54;100.00
7309;BME280;3695;53.330;9.876;2023-04-01T02:28:34;103624.88;;;9.56;100.00
7309;BME280;3695;53.330;9.876;2023-04-01T02:31:03;103587.97;;;9.55;100.00
7309;BME280;3695;53.330;9.876;2023-04-01T02:33:30;103577.13;;;9.55;100.00
7309;BME280;3695;53.330;9.876;2023-04-01T02:35:57;103603.78;;;9.50;100.00
7309;BME280;3695;53.330;9.876;2023-04-01T02:38:23;103621.16;;;9.47;100.00
7309;BME280;3695;53.330;9.876;2023-04-01T02:40:57;103654.75;;;9.44;100.00
7309;BME280;3695;53.330;9.876;2023-04-01T02:43:24;103693.56;;;9.55;100.00
7309;BME280;3695;53.330;9.876;2023-04-01T02:45:50;103682.59;;;9.46;100.00
7309;BME280;3695;53.330;9.876;2023-04-01T02:48:17;103707.91;;;9.45;100.00
7309;BME280;3695;53.330;9.876;2023-04-01T02:50:43;103709.50;;;9.48;100.00
7309;BME280;3695;53.330;9.876;2023-04-01T02:53:10;103721.63;;;9.54;100.00
7309;BME280;3695;53.330;9.876;2023-04-01T02:55:37;103704.97;;;9.49;100.00
7309;BME280;3695;53.330;9.876;2023-04-01T02:58:05;103702.50;;;9.45;100.00
7309;BME280;3695;53.330;9.876;2023-04-01T03:00:31;103731.03;;;9.50;100.00
7309;BME280;3695;53.330;9.876;2023-04-01T03:02:58;103700.53;;;9.48;100.00
7309;BME280;3695;53.330;9.876;2023-04-01T03:05:24;103711.09;;;9.51;100.00
7309;BME280;3695;53.330;9.876;2023-04-01T03:07:51;103708.91;;;9.44;100.00
7309;BME280;3695;53.330;9.876;2023-04-01T03:10:18;103707.81;;;9.47;100.00
7309;BME280;3695;53.330;9.876;2023-04-01T03:12:44;103712.38;;;9.46;100.00
7309;BME280;3695;53.330;9.876;2023-04-01T03:15:13;103695.28;;;9.56;100.00
7309;BME280;3695;53.330;9.876;2023-04-01T03:17:41;103658.78;;;9.50;100.00
7309;BME280;3695;53.330;9.876;2023-04-01T03:20:08;103686.72;;;9.51;100.00
7309;BME280;3695;53.330;9.876;2023-04-01T03:22:36;103648.09;;;9.49;100.00
7309;BME280;3695;53.330;9.876;2023-04-01T03:25:03;103622.59;;;9.51;100.00
7309;BME280;3695;53.330;9.876;2023-04-01T03:27:30;103591.25;;;9.49;100.00
7309;BME280;3695;53.330;9.876;2023-04-01T03:29:56;103599.50;;;9.57;100.00
7309;BME280;3695;53.330;9.876;2023-04-01T03:32:24;103574.41;;;9.55;100.00
7309;BME280;3695;53.330;9.876;2023-04-01T03:34:52;103596.94;;;9.55;100.00
7309;BME280;3695;53.330;9.876;2023-04-01T03:37:18;103589.66;;;9.56;100.00
7309;BME280;3695;53.330;9.876;2023-04-01T03:39:45;103575.13;;;9.57;100.00
7309;BME280;3695;53.330;9.876;2023-04-01T03:42:12;103585.25;;;9.55;100.00
7309;BME280;3695;53.330;9.876;2023-04-01T03:44:38;103571.56;;;9.56;100.00
7309;BME280;3695;53.330;9.876;2023-04-01T03:47:05;103573.84;;;9.51;100.00
7309;BME280;3695;53.330;9.876;2023-04-01T03:49:33;103603.50;;;9.53;100.00
7309;BME280;3695;53.330;9.876;2023-04-01T03:51:59;103611.47;;;9.54;100.00
7309;BME280;3695;53.330;9.876;2023-04-01T03:54:25;103612.31;;;9.55;100.00
7309;BME280;3695;53.330;9.876;2023-04-01T03:56:52;103610.75;;;9.62;100.00
7309;BME280;3695;53.330;9.876;2023-04-01T03:59:20;103625.28;;;9.61;100.00
7309;BME280;3695;53.330;9.876;2023-04-01T04:01:46;103638.13;;;9.59;100.00
7309;BME280;3695;53.330;9.876;2023-04-01T04:04:13;103641.69;;;9.50;100.00
7309;BME280;3695;53.330;9.876;2023-04-01T04:06:41;103668.47;;;9.53;100.00
7309;BME280;3695;53.330;9.876;2023-04-01T04:09:07;103705.97;;;9.48;100.00
7309;BME280;3695;53.330;9.876;2023-04-01T04:11:34;103755.69;;;9.56;100.00
7309;BME280;3695;53.330;9.876;2023-04-01T04:14:00;103799.75;;;9.58;100.00
7309;BME280;3695;53.330;9.876;2023-04-01T04:16:27;103821.84;;;9.63;100.00
7309;BME280;3695;53.330;9.876;2023-04-01T04:18:53;103810.72;;;9.57;100.00
7309;BME280;3695;53.330;9.876;2023-04-01T04:21:20;103814.16;;;9.59;100.00
7309;BME280;3695;53.330;9.876;2023-04-01T04:23:48;103813.28;;;9.58;100.00
7309;BME280;3695;53.330;9.876;2023-04-01T04:26:15;103834.38;;;9.55;100.00
7309;BME280;3695;53.330;9.876;2023-04-01T04:28:42;103859.47;;;9.57;100.00
7309;BME280;3695;53.330;9.876;2023-04-01T04:31:08;103864.88;;;9.57;100.00
7309;BME280;3695;53.330;9.876;2023-04-01T04:33:35;103882.13;;;9.56;100.00
7309;BME280;3695;53.330;9.876;2023-04-01T04:36:03;103886.41;;;9.58;100.00
7309;BME280;3695;53.330;9.876;2023-04-01T04:38:30;103897.38;;;9.57;100.00
7309;BME280;3695;53.330;9.876;2023-04-01T04:40:57;103897.38;;;9.57;100.00
7309;BME280;3695;53.330;9.876;2023-04-01T04:43:24;103862.44;;;9.54;100.00
7309;BME280;3695;53.330;9.876;2023-04-01T04:45:50;103842.91;;;9.50;100.00
7309;BME280;3695;53.330;9.876;2023-04-01T04:48:17;103846.91;;;9.56;100.00
7309;BME280;3695;53.330;9.876;2023-04-01T04:50:46;103832.66;;;9.54;100.00
7309;BME280;3695;53.330;9.876;2023-04-01T04:53:12;103834.66;;;9.52;100.00
7309;BME280;3695;53.330;9.876;2023-04-01T04:55:42;103837.78;;;9.47;100.00
7309;BME280;3695;53.330;9.876;2023-04-01T04:58:10;103857.31;;;9.51;100.00
7309;BME280;3695;53.330;9.876;2023-04-01T05:00:37;103846.91;;;9.56;100.00
7309;BME280;3695;53.330;9.876;2023-04-01T05:03:03;103810.28;;;9.52;100.00
7309;BME280;3695;53.330;9.876;2023-04-01T05:05:30;103793.31;;;9.50;100.00
7309;BME280;3695;53.330;9.876;2023-04-01T05:07:56;103773.09;;;9.54;100.00
7309;BME280;3695;53.330;9.876;2023-04-01T05:10:23;103763.13;;;9.54;100.00
7309;BME280;3695;53.330;9.876;2023-04-01T05:12:49;103762.84;;;9.57;100.00
7309;BME280;3695;53.330;9.876;2023-04-01T05:15:17;103745.16;;;9.53;100.00
7309;BME280;3695;53.330;9.876;2023-04-01T05:17:44;103750.56;;;9.53;100.00
7309;BME280;3695;53.330;9.876;2023-04-01T05:20:11;103762.97;;;9.56;100.00
7309;BME280;3695;53.330;9.876;2023-04-01T05:22:38;103761.56;;;9.61;100.00
7309;BME280;3695;53.330;9.876;2023-04-01T05:25:05;103746.03;;;9.63;100.00
7309;BME280;3695;53.330;9.876;2023-04-01T05:27:31;103757.44;;;9.67;100.00
7309;BME280;3695;53.330;9.876;2023-04-01T05:29:58;103750.31;;;9.66;100.00
7309;BME280;3695;53.330;9.876;2023-04-01T05:32:26;103719.09;;;9.62;100.00
7309;BME280;3695;53.330;9.876;2023-04-01T05:34:53;103722.66;;;9.62;100.00
7309;BME280;3695;53.330;9.876;2023-04-01T05:37:19;103720.78;;;9.63;100.00
7309;BME280;3695;53.330;9.876;2023-04-01T05:39:48;103715.38;;;9.63;100.00
7309;BME280;3695;53.330;9.876;2023-04-01T05:42:14;103736.03;;;9.64;100.00
7309;BME280;3695;53.330;9.876;2023-04-01T05:44:41;103734.91;;;9.66;100.00
7309;BME280;3695;53.330;9.876;2023-04-01T05:47:08;103743.16;;;9.65;100.00
7309;BME280;3695;53.330;9.876;2023-04-01T05:49:35;103756.72;;;9.65;100.00
7309;BME280;3695;53.330;9.876;2023-04-01T05:52:02;103765.13;;;9.71;100.00
7309;BME280;3695;53.330;9.876;2023-04-01T05:54:28;103719.78;;;9.64;100.00
7309;BME280;3695;53.330;9.876;2023-04-01T05:56:55;103714.97;;;9.77;100.00
7309;BME280;3695;53.330;9.876;2023-04-01T05:59:21;103692.28;;;9.78;100.00
7309;BME280;3695;53.330;9.876;2023-04-01T06:01:48;103663.06;;;9.72;100.00
7309;BME280;3695;53.330;9.876;2023-04-01T06:04:16;103659.63;;;9.79;100.00
7309;BME280;3695;53.330;9.876;2023-04-01T06:06:44;103631.69;;;9.79;100.00
7309;BME280;3695;53.330;9.876;2023-04-01T06:09:14;103630.56;;;9.82;100.00
7309;BME280;3695;53.330;9.876;2023-04-01T06:11:51;103601.91;;;9.79;100.00
7309;BME280;3695;53.330;9.876;2023-04-01T06:14:30;103591.47;;;9.84;100.00
7309;BME280;3695;53.330;9.876;2023-04-01T06:17:09;103582.34;;;9.85;100.00
7309;BME280;3695;53.330;9.876;2023-04-01T06:19:42;103576.38;;;9.82;100.00
7309;BME280;3695;53.330;9.876;2023-04-01T06:22:56;103563.09;;;9.88;100.00
7309;BME280;3695;53.330;9.876;2023-04-01T06:25:42;103534.75;;;9.83;100.00
7309;BME280;3695;53.330;9.876;2023-04-01T06:28:38;103540.72;;;9.86;100.00
7309;BME280;3695;53.330;9.876;2023-04-01T06:31:15;103530.72;;;9.87;100.00
7309;BME280;3695;53.330;9.876;2023-04-01T06:33:59;103512.34;;;9.90;100.00
7309;BME280;3695;53.330;9.876;2023-04-01T06:36:39;103494.22;;;9.91;100.00
7309;BME280;3695;53.330;9.876;2023-04-01T06:39:18;103477.81;;;9.92;100.00
7309;BME280;3695;53.330;9.876;2023-04-01T06:44:49;103456.56;;;9.97;100.00
7309;BME280;3695;53.330;9.876;2023-04-01T06:47:33;103436.59;;;9.98;100.00
7309;BME280;3695;53.330;9.876;2023-04-01T06:50:07;103393.97;;;10.00;100.00
7309;BME280;3695;53.330;9.876;2023-04-01T06:52:47;103349.19;;;9.96;100.00
7309;BME280;3695;53.330;9.876;2023-04-01T06:55:27;103366.94;;;10.08;100.00
7309;BME280;3695;53.330;9.876;2023-04-01T06:57:56;103351.59;;;9.99;100.00
7309;BME280;3695;53.330;9.876;2023-04-01T07:00:28;103313.97;;;9.96;100.00
7309;BME280;3695;53.330;9.876;2023-04-01T07:03:04;103296.59;;;9.89;100.00
7309;BME280;3695;53.330;9.876;2023-04-01T07:05:33;103322.81;;;9.98;100.00
7309;BME280;3695;53.330;9.876;2023-04-01T07:08:02;103319.09;;;9.99;100.00
7309;BME280;3695;53.330;9.876;2023-04-01T07:10:35;103313.28;;;9.94;100.00
7309;BME280;3695;53.330;9.876;2023-04-01T07:13:10;103330.53;;;9.93;100.00
7309;BME280;3695;53.330;9.876;2023-04-01T07:15:40;103326.09;;;9.92;100.00
7309;BME280;3695;53.330;9.876;2023-04-01T07:18:12;103358.19;;;9.97;100.00
7309;BME280;3695;53.330;9.876;2023-04-01T07:20:42;103374.44;;;9.97;100.00
7309;BME280;3695;53.330;9.876;2023-04-01T07:23:19;103344.28;;;9.82;100.00
7309;BME280;3695;53.330;9.876;2023-04-01T07:25:52;103238.06;;;9.33;100.00
7309;BME280;3695;53.330;9.876;2023-04-01T07:28:20;103172.22;;;9.15;100.00
7309;BME280;3695;53.330;9.876;2023-04-01T07:30:52;103132.00;;;9.02;100.00
7309;BME280;3695;53.330;9.876;2023-04-01T07:33:30;103089.44;;;8.95;100.00
7309;BME280;3695;53.330;9.876;2023-04-01T07:36:03;103070.13;;;8.90;100.00
7309;BME280;3695;53.330;9.876;2023-04-01T07:38:38;103079.09;;;8.90;100.00
7309;BME280;3695;53.330;9.876;2023-04-01T07:41:15;103028.13;;;8.68;100.00
7309;BME280;3695;53.330;9.876;2023-04-01T07:43:54;103034.56;;;8.84;100.00
7309;BME280;3695;53.330;9.876;2023-04-01T07:46:37;103010.63;;;8.90;100.00
7309;BME280;3695;53.330;9.876;2023-04-01T07:49:08;102983.50;;;8.81;100.00
7309;BME280;3695;53.330;9.876;2023-04-01T07:51:42;102898.91;;;8.54;100.00
7309;BME280;3695;53.330;9.876;2023-04-01T07:54:19;102899.75;;;8.72;100.00
7309;BME280;3695;53.330;9.876;2023-04-01T07:56:54;102834.66;;;8.65;100.00
7309;BME280;3695;53.330;9.876;2023-04-01T07:59:29;102715.66;;;8.39;100.00
7309;BME280;3695;53.330;9.876;2023-04-01T08:02:06;102607.63;;;8.21;100.00
7309;BME280;3695;53.330;9.876;2023-04-01T08:04:46;102565.94;;;8.24;100.00
7309;BME280;3695;53.330;9.876;2023-04-01T08:07:18;102544.28;;;8.16;100.00
7309;BME280;3695;53.330;9.876;2023-04-01T08:09:51;102449.19;;;8.04;100.00
7309;BME280;3695;53.330;9.876;2023-04-01T08:12:29;102421.47;;;8.02;100.00
7309;BME280;3695;53.330;9.876;2023-04-01T08:15:05;102403.56;;;8.01;100.00
7309;BME280;3695;53.330;9.876;2023-04-01T08:17:40;102376.41;;;8.03;100.00
7309;BME280;3695;53.330;9.876;2023-04-01T08:20:18;102327.88;;;7.69;100.00
7309;BME280;3695;53.330;9.876;2023-04-01T08:22:51;102303.44;;;7.78;100.00
7309;BME280;3695;53.330;9.876;2023-04-01T08:25:24;102280.84;;;7.79;100.00
7309;BME280;3695;53.330;9.876;2023-04-01T08:27:55;102271.06;;;7.86;100.00
7309;BME280;3695;53.330;9.876;2023-04-01T08:30:24;102263.81;;;7.79;100.00
7309;BME280;3695;53.330;9.876;2023-04-01T08:32:55;102232.06;;;7.73;100.00
7309;BME280;3695;53.330;9.876;2023-04-01T08:35:27;102223.47;;;7.77;100.00
7309;BME280;3695;53.330;9.876;2023-04-01T08:37:59;102184.75;;;7.44;100.00
7309;BME280;3695;53.330;9.876;2023-04-01T08:41:00;102173.97;;;7.44;100.00
7309;BME280;3695;53.330;9.876;2023-04-01T08:46:31;102148.72;;;7.62;100.00
7309;BME280;3695;53.330;9.876;2023-04-01T08:49:14;102129.81;;;7.53;100.00
7309;BME280;3695;53.330;9.876;2023-04-01T08:54:54;102087.19;;;7.73;100.00
7309;BME280;3695;53.330;9.876;2023-04-01T08:57:39;102067.63;;;7.71;100.00
7309;BME280;3695;53.330;9.876;2023-04-01T09:00:25;102035.56;;;7.68;100.00
7309;BME280;3695;53.330;9.876;2023-04-01T09:06:24;101971.47;;;7.78;100.00
7309;BME280;3695;53.330;9.876;2023-04-01T09:09:09;101936.75;;;7.26;100.00
7309;BME280;3695;53.330;9.876;2023-04-01T09:11:54;101937.94;;;7.40;100.00
7309;BME280;3695;53.330;9.876;2023-04-01T09:14:48;101925.13;;;7.34;100.00
7309;BME280;3695;53.330;9.876;2023-04-01T09:17:55;101930.19;;;7.37;100.00
7309;BME280;3695;53.330;9.876;2023-04-01T09:20:45;101906.75;;;7.30;100.00
7309;BME280;3695;53.330;9.876;2023-04-01T09:23:36;101871.38;;;7.24;100.00
7309;BME280;3695;53.330;9.876;2023-04-01T09:26:32;101881.13;;;7.34;100.00
7309;BME280;3695;53.330;9.876;2023-04-01T09:29:13;101893.44;;;7.28;100.00
7309;BME280;3695;53.330;9.876;2023-04-01T09:31:57;101898.50;;;7.39;100.00
7309;BME280;3695;53.330;9.876;2023-04-01T09:34:43;101886.69;;;7.40;100.00
7309;BME280;3695;53.330;9.876;2023-04-01T09:37:19;101878.63;;;7.32;100.00
7309;BME280;3695;53.330;9.876;2023-04-01T09:40:09;101850.00;;;7.15;100.00
7309;BME280;3695;53.330;9.876;2023-04-01T09:42:43;101832.47;;;7.11;100.00
7309;BME280;3695;53.330;9.876;2023-04-01T09:45:23;101832.63;;;7.25;100.00
7309;BME280;3695;53.330;9.876;2023-04-01T09:48:03;101789.66;;;7.00;100.00
7309;BME280;3695;53.330;9.876;2023-04-01T09:50:44;101805.50;;;7.19;100.00
7309;BME280;3695;53.330;9.876;2023-04-01T09:53:25;101794.19;;;7.23;100.00
7309;BME280;3695;53.330;9.876;2023-04-01T09:59:31;101774.47;;;7.31;100.00
7309;BME280;3695;53.330;9.876;2023-04-01T10:02:34;101772.78;;;7.30;100.00
7309;BME280;3695;53.330;9.876;2023-04-01T10:08:24;101745.00;;;7.21;100.00
7309;BME280;3695;53.330;9.876;2023-04-01T10:11:25;101720.25;;;7.18;100.00
7309;BME280;3695;53.330;9.876;2023-04-01T10:14:23;101709.09;;;7.21;100.00
7309;BME280;3695;53.330;9.876;2023-04-01T10:17:28;101696.00;;;7.10;100.00
7309;BME280;3695;53.330;9.876;2023-04-01T10:20:19;101704.56;;;7.21;100.00
7309;BME280;3695;53.330;9.876;2023-04-01T10:23:04;101682.50;;;7.18;100.00
7309;BME280;3695;53.330;9.876;2023-04-01T10:26:00;101674.38;;;7.26;100.00
7309;BME280;3695;53.330;9.876;2023-04-01T10:28:48;101659.91;;;7.19;100.00
7309;BME280;3695;53.330;9.876;2023-04-01T10:31:34;101691.59;;;7.17;100.00
7309;BME280;3695;53.330;9.876;2023-04-01T10:34:29;101690.56;;;7.26;100.00
7309;BME280;3695;53.330;9.876;2023-04-01T10:37:15;101678.09;;;7.25;100.00
7309;BME280;3695;53.330;9.876;2023-04-01T10:40:15;101661.47;;;7.05;100.00
7309;BME280;3695;53.330;9.876;2023-04-01T10:43:13;101678.56;;;7.29;100.00
7309;BME280;3695;53.330;9.876;2023-04-01T10:46:19;101653.50;;;7.20;100.00
7309;BME280;3695;53.330;9.876;2023-04-01T10:49:35;101658.75;;;7.13;100.00
7309;BME280;3695;53.330;9.876;2023-04-01T10:52:22;101671.00;;;7.24;100.00
7309;BME280;3695;53.330;9.876;2023-04-01T10:55:00;101718.63;;;7.40;100.00
7309;BME280;3695;53.330;9.876;2023-04-01T10:57:48;101709.53;;;7.41;100.00
7309;BME280;3695;53.330;9.876;2023-04-01T11:00:55;101665.38;;;7.42;100.00
7309;BME280;3695;53.330;9.876;2023-04-01T11:07:19;101606.38;;;7.39;100.00
7309;BME280;3695;53.330;9.876;2023-04-01T11:10:21;101583.91;;;7.46;100.00
7309;BME280;3695;53.330;9.876;2023-04-01T11:13:21;101596.50;;;7.54;100.00
7309;BME280;3695;53.330;9.876;2023-04-01T11:16:25;101591.81;;;7.25;100.00
7309;BME280;3695;53.330;9.876;2023-04-01T11:19:15;101584.97;;;7.14;100.00
7309;BME280;3695;53.330;9.876;2023-04-01T11:22:10;101563.81;;;7.26;100.00
7309;BME280;3695;53.330;9.876;2023-04-01T11:24:56;101548.19;;;7.21;100.00
7309;BME280;3695;53.330;9.876;2023-04-01T11:27:43;101570.78;;;7.43;100.00
7309;BME280;3695;53.330;9.876;2023-04-01T11:30:28;101587.69;;;7.37;100.00
7309;BME280;3695;53.330;9.876;2023-04-01T11:33:03;101569.22;;;7.26;100.00
7309;BME280;3695;53.330;9.876;2023-04-01T11:35:43;101594.63;;;7.32;100.00
7309;BME280;3695;53.330;9.876;2023-04-01T11:38:29;101587.13;;;7.19;100.00
7309;BME280;3695;53.330;9.876;2023-04-01T11:41:06;101599.22;;;7.23;100.00
7309;BME280;3695;53.330;9.876;2023-04-01T11:43:43;101588.81;;;7.20;100.00
7309;BME280;3695;53.330;9.876;2023-04-01T11:46:18;101571.25;;;7.24;100.00
7309;BME280;3695;53.330;9.876;2023-04-01T11:48:57;101536.19;;;7.24;100.00
7309;BME280;3695;53.330;9.876;2023-04-01T11:51:40;101515.34;;;7.41;100.00
7309;BME280;3695;53.330;9.876;2023-04-01T11:54:26;101464.09;;;7.41;100.00
7309;BME280;3695;53.330;9.876;2023-04-01T11:57:06;101430.16;;;7.32;100.00
7309;BME280;3695;53.330;9.876;2023-04-01T11:59:47;101416.56;;;7.25;100.00
7309;BME280;3695;53.330;9.876;2023-04-01T12:02:24;101430.97;;;7.32;100.00
7309;BME280;3695;53.330;9.876;2023-04-01T12:05:04;101415.75;;;7.39;100.00
7309;BME280;3695;53.330;9.876;2023-04-01T12:08:04;101364.03;;;7.21;100.00
7309;BME280;3695;53.330;9.876;2023-04-01T12:10:39;101362.81;;;7.23;100.00
7309;BME280;3695;53.330;9.876;2023-04-01T12:13:17;101376.00;;;7.18;100.00
7309;BME280;3695;53.330;9.876;2023-04-01T12:16:01;101398.16;;;7.29;100.00
7309;BME280;3695;53.330;9.876;2023-04-01T12:18:34;101422.91;;;7.32;100.00
7309;BME280;3695;53.330;9.876;2023-04-01T12:21:13;101386.84;;;7.10;100.00
7309;BME280;3695;53.330;9.876;2023-04-01T12:24:05;101395.63;;;7.27;100.00
7309;BME280;3695;53.330;9.876;2023-04-01T12:26:55;101399.25;;;7.19;100.00
7309;BME280;3695;53.330;9.876;2023-04-01T12:29:41;101392.25;;;7.10;100.00
7309;BME280;3695;53.330;9.876;2023-04-01T12:32:16;101421.41;;;7.30;100.00
7309;BME280;3695;53.330;9.876;2023-04-01T12:35:13;101430.75;;;7.19;100.00
7309;BME280;3695;53.330;9.876;2023-04-01T12:37:50;101440.59;;;7.12;100.00
7309;BME280;3695;53.330;9.876;2023-04-01T12:40:44;101462.38;;;7.25;100.00
7309;BME280;3695;53.330;9.876;2023-04-01T12:43:27;101438.03;;;6.87;100.00
7309;BME280;3695;53.330;9.876;2023-04-01T12:46:03;101430.38;;;6.76;100.00
7309;BME280;3695;53.330;9.876;2023-04-01T12:48:53;101430.13;;;6.86;100.00
7309;BME280;3695;53.330;9.876;2023-04-01T12:51:39;101427.13;;;6.81;100.00
7309;BME280;3695;53.330;9.876;2023-04-01T12:54:24;101435.22;;;6.81;100.00
7309;BME280;3695;53.330;9.876;2023-04-01T12:57:09;101444.91;;;7.21;100.00
7309;BME280;3695;53.330;9.876;2023-04-01T12:59:58;101497.84;;;7.37;100.00
7309;BME280;3695;53.330;9.876;2023-04-01T13:02:40;101496.59;;;6.93;100.00
7309;BME280;3695;53.330;9.876;2023-04-01T13:05:23;101542.66;;;7.15;100.00
7309;BME280;3695;53.330;9.876;2023-04-01T13:08:15;101512.66;;;6.87;100.00
7309;BME280;3695;53.330;9.876;2023-04-01T13:10:59;101539.59;;;6.87;100.00
7309;BME280;3695;53.330;9.876;2023-04-01T13:16:31;101546.31;;;6.91;100.00
7309;BME280;3695;53.330;9.876;2023-04-01T13:19:04;101556.16;;;7.07;100.00
7309;BME280;3695;53.330;9.876;2023-04-01T13:21:39;101519.81;;;6.72;100.00
7309;BME280;3695;53.330;9.876;2023-04-01T13:27:09;101532.75;;;6.76;100.00
7309;BME280;3695;53.330;9.876;2023-04-01T13:29:43;101537.50;;;6.66;100.00
7309;BME280;3695;53.330;9.876;2023-04-01T13:32:18;101541.88;;;6.59;100.00
7309;BME280;3695;53.330;9.876;2023-04-01T13:34:59;101568.84;;;6.51;100.00
7309;BME280;3695;53.330;9.876;2023-04-01T13:37:45;101576.22;;;6.57;100.00
7309;BME280;3695;53.330;9.876;2023-04-01T13:40:33;101594.72;;;6.76;100.00
7309;BME280;3695;53.330;9.876;2023-04-01T13:43:08;101591.88;;;6.70;100.00
7309;BME280;3695;53.330;9.876;2023-04-01T13:45:45;101578.75;;;6.67;100.00
7309;BME280;3695;53.330;9.876;2023-04-01T13:48:45;101570.84;;;6.57;100.00
7309;BME280;3695;53.330;9.876;2023-04-01T13:51:33;101586.31;;;6.71;100.00
7309;BME280;3695;53.330;9.876;2023-04-01T13:54:27;101590.38;;;6.67;100.00
7309;BME280;3695;53.330;9.876;2023-04-01T13:57:13;101583.78;;;6.61;100.00
7309;BME280;3695;53.330;9.876;2023-04-01T14:00:10;101599.44;;;6.58;100.00
7309;BME280;3695;53.330;9.876;2023-04-01T14:03:03;101614.63;;;6.51;100.00
7309;BME280;3695;53.330;9.876;2023-04-01T14:05:49;101625.03;;;6.54;100.00
7309;BME280;3695;53.330;9.876;2023-04-01T14:08:34;101614.13;;;6.47;100.00
7309;BME280;3695;53.330;9.876;2023-04-01T14:11:10;101624.75;;;6.41;100.00
7309;BME280;3695;53.330;9.876;2023-04-01T14:13:44;101641.88;;;6.64;100.00
7309;BME280;3695;53.330;9.876;2023-04-01T14:16:35;101640.56;;;6.44;100.00
7309;BME280;3695;53.330;9.876;2023-04-01T14:19:14;101647.59;;;6.53;100.00
7309;BME280;3695;53.330;9.876;2023-04-01T14:21:52;101653.84;;;6.45;100.00
7309;BME280;3695;53.330;9.876;2023-04-01T14:24:32;101672.69;;;6.70;100.00
7309;BME280;3695;53.330;9.876;2023-04-01T14:27:19;101652.31;;;6.67;100.00